WetterOnline ( https://www.wetteronline.ch )

Wetter aktuell Soltau

Aktuelles Wetter: Soltau (76m)

6-stündlich | Neueste Meldungen
Ortszeit Temperatur Wetter
Fr, 21.06. 8:00 18.4° C bewölkt
Fr, 21.06. 2:00 17.1° C bedeckt
Do, 20.06. 20:00 19.1° C wolkig
Do, 20.06. 14:00 19.3° C wolkig
Do, 20.06. 8:00 12.6° C wolkenlos
Do, 20.06. 2:00 8.9° C wolkig
Mi, 19.06. 20:00 17.2° C wolkenlos
Mi, 19.06. 14:00 17.8° C wolkig
Ortszeit Temperatur Wetter
Fr, 21.06. 8:30 18.2° C bewölkt
Fr, 21.06. 8:20 18.2° C bewölkt
Fr, 21.06. 8:10 18.2° C bedeckt
Fr, 21.06. 8:00 18.4° C bewölkt
Fr, 21.06. 7:50 18.4° C bewölkt
Fr, 21.06. 7:40 18.1° C bedeckt
Fr, 21.06. 7:30 17.2° C bewölkt
Fr, 21.06. 7:00 16.5° C bedeckt
Fr, 21.06. 6:30 16.3° C bedeckt
Fr, 21.06. 6:00 16.2° C wolkig
Fr, 21.06. 5:30 16.2° C bedeckt
Ortszeit Relative Feuchte Sichtweite
Fr, 21.06. 8:00 73% 60 km
Fr, 21.06. 2:00 73% 60 km
Do, 20.06. 20:00 59% 65 km
Do, 20.06. 14:00 58% 50 km
Do, 20.06. 8:00 80% 35 km
Do, 20.06. 2:00 96% 30 km
Mi, 19.06. 20:00 60% 55 km
Mi, 19.06. 14:00 62% 60 km
Ortszeit Relative Feuchte Sichtweite
Fr, 21.06. 8:30 75% 45 km
Fr, 21.06. 8:20 75% -
Fr, 21.06. 8:10 76% -
Fr, 21.06. 8:00 73% 60 km
Fr, 21.06. 7:50 73% -
Fr, 21.06. 7:40 73% -
Fr, 21.06. 7:30 75% 45 km
Fr, 21.06. 7:00 78% 45 km
Fr, 21.06. 6:30 77% 55 km
Fr, 21.06. 6:00 78% 50 km
Fr, 21.06. 5:30 77% 60 km
Ortszeit Niederschlagsmenge Niederschlagsart
Fr, 21.06. 8:00 0.1 l/m2 in 12 Std. -
Fr, 21.06. 2:00 0.1 l/m2 in 6 Std. Regen
Do, 20.06. 20:00 0.1 l/m2 in 12 Std. Regen
Do, 20.06. 14:00 0.0 l/m2 in 6 Std. -
Do, 20.06. 8:00 0.0 l/m2 in 12 Std. -
Do, 20.06. 2:00 0.0 l/m2 in 6 Std. -
Mi, 19.06. 20:00 0.0 l/m2 in 12 Std. -
Mi, 19.06. 14:00 0.0 l/m2 in 6 Std. -
Ortszeit Niederschlagsmenge Niederschlagsart
Fr, 21.06. 8:30 0.0 l/m2 in 30 Min -
Fr, 21.06. 8:20 keine Meldung -
Fr, 21.06. 8:10 keine Meldung -
Fr, 21.06. 8:00 0.0 l/m2 in 1 Std. -
Fr, 21.06. 7:50 keine Meldung -
Fr, 21.06. 7:40 keine Meldung -
Fr, 21.06. 7:30 0.0 l/m2 in 30 Min -
Fr, 21.06. 7:00 0.0 l/m2 in 1 Std. -
Fr, 21.06. 6:30 0.0 l/m2 in 30 Min -
Fr, 21.06. 6:00 0.0 l/m2 in 1 Std. -
Fr, 21.06. 5:30 0.0 l/m2 in 30 Min -
Ortszeit Stärke Spitze Richtung
km/h Bft. km/h Grad Sektor
Fr, 21.06. 8:00 9 2 17 120° SO
Fr, 21.06. 2:00 6 1 13 80° O
Do, 20.06. 20:00 9 2 19 60° NO
Do, 20.06. 14:00 7 2 18 70° O
Do, 20.06. 8:00 4 1 14 50° NO
Do, 20.06. 2:00 4 1 25 340° N
Mi, 19.06. 20:00 15 3 33 320° NW
Mi, 19.06. 14:00 15 3 24 330° NW
Ortszeit Stärke Spitze Richtung
km/h Bft. km/h Grad Sektor
Fr, 21.06. 8:30 7 2 22 100° O
Fr, 21.06. 8:20 7 2 - 100° O
Fr, 21.06. 8:10 11 2 - 110° O
Fr, 21.06. 8:00 9 2 15 120° SO
Fr, 21.06. 7:50 9 2 - 120° SO
Fr, 21.06. 7:40 9 2 - 100° O
Fr, 21.06. 7:30 7 2 14 60° NO
Fr, 21.06. 7:00 6 1 13 90° O
Fr, 21.06. 6:30 6 1 13 90° O
Fr, 21.06. 6:00 7 2 11 90° O
Fr, 21.06. 5:30 4 1 11 100° O
Ortszeit Untergrenze Bedeckung Gattung
total tief tief mittel hoch
Fr, 21.06. 8:00 1350 m 8/8 5/8 - - -
Fr, 21.06. 2:00 1140 m 8/8 8/8 - - -
Do, 20.06. 20:00 2100 m 7/8 1/8 - - -
Do, 20.06. 14:00 1170 m 7/8 2/8 - - -
Do, 20.06. 8:00 - 0/8 0/8 - - -
Do, 20.06. 2:00 10500 m 8/8 0/8 - - -
Mi, 19.06. 20:00 - 0/8 0/8 - - -
Mi, 19.06. 14:00 1020 m 5/8 5/8 - - -
Ortszeit Bedeckungsgrad in Achtel und Wolkenuntergrenze
Fr, 21.06. 8:30 4(1290m) 8(4800m)
Fr, 21.06. 8:20 4(1290m) 8(4800m)
Fr, 21.06. 8:10 8
Fr, 21.06. 8:00 3(1350m) 5(2400m) 8(4800m)
Fr, 21.06. 7:50 3(1350m) 5(2400m) 8(4800m)
Fr, 21.06. 7:40 8
Fr, 21.06. 7:30 5(2100m) 8(4500m) 8(5100m)
Fr, 21.06. 7:00 2(1170m) 5(1500m) 8(2700m)
Fr, 21.06. 6:30 1(1320m) 5(1800m) 8(2700m)
Fr, 21.06. 6:00 1(1260m) 4(1800m) 7(3300m)
Fr, 21.06. 5:30 6(1800m) 8(2700m) 8(3600m)
Ortszeit Luftdruck NN (hPa) Tendenz (hPa in 3 Std.)
Fr, 21.06. 8:00 1014 - 0,8
Fr, 21.06. 2:00 1017 - 0,9
Do, 20.06. 20:00 1018 - 2,2
Do, 20.06. 14:00 1022 - 1,2
Do, 20.06. 8:00 1024 + 0,3
Do, 20.06. 2:00 1023 + 0,7
Mi, 19.06. 20:00 1020 + 1,2
Mi, 19.06. 14:00 1018 + 0,7
Ortszeit Luftdruck NN (hPa) Tendenz (hPa in 3 Std.)
Fr, 21.06. 8:30 1014 - 1,1
Fr, 21.06. 8:20 1014 keine Meldung
Fr, 21.06. 8:10 1014 keine Meldung
Fr, 21.06. 8:00 1014 - 0,8
Fr, 21.06. 7:50 1014 keine Meldung
Fr, 21.06. 7:40 1014 keine Meldung
Fr, 21.06. 7:30 1014 - 1,3
Fr, 21.06. 7:00 1014 - 1,5
Fr, 21.06. 6:30 1014 - 1,5
Fr, 21.06. 6:00 1015 - 1,5
Fr, 21.06. 5:30 1015 - 1,4
Ortszeit Schneehöhe (cm)
Fr, 21.06. 8:00 0
Fr, 21.06. 2:00 0
Do, 20.06. 20:00 0
Do, 20.06. 14:00 0
Do, 20.06. 8:00 0
Do, 20.06. 2:00 0
Mi, 19.06. 20:00 0
Mi, 19.06. 14:00 0
Ortszeit Schneehöhe (cm)
Fr, 21.06. 8:30 0
Fr, 21.06. 8:20 0
Fr, 21.06. 8:10 -
Fr, 21.06. 8:00 0
Fr, 21.06. 7:50 0
Fr, 21.06. 7:40 -
Fr, 21.06. 7:30 0
Fr, 21.06. 7:00 0
Fr, 21.06. 6:30 0
Fr, 21.06. 6:00 0
Fr, 21.06. 5:30 0
Link zu dieser Seite / Seite empfehlen

Das Wetter in ...